createdAt,value
2017-11-09T00:03:43.071Z,101789.57
2017-11-09T00:06:16.860Z,101783.77
2017-11-09T00:08:45.228Z,101785.57
2017-11-09T00:11:13.614Z,101789.92
2017-11-09T00:13:42.004Z,101784.64
2017-11-09T00:16:10.370Z,101786.94
2017-11-09T00:18:38.745Z,101783.02
2017-11-09T00:21:07.125Z,101773.62
2017-11-09T00:23:35.491Z,101770.39
2017-11-09T00:26:03.870Z,101765.44
2017-11-09T00:28:32.244Z,101772.55
2017-11-09T00:31:00.619Z,101776.17
2017-11-09T00:33:28.991Z,101775.24
2017-11-09T00:35:57.364Z,101771.70
2017-11-09T00:38:26.509Z,101765.54
2017-11-09T00:40:54.890Z,101763.30
2017-11-09T00:43:23.274Z,101770.55
2017-11-09T00:45:51.658Z,101773.64
2017-11-09T00:48:20.032Z,101769.18
2017-11-09T00:50:48.408Z,101771.45
2017-11-09T00:53:16.785Z,101768.36
2017-11-09T00:55:45.167Z,101767.95
2017-11-09T00:58:13.545Z,101765.31
2017-11-09T01:00:41.937Z,101757.64
2017-11-09T01:03:10.308Z,101759.34
2017-11-09T01:05:38.684Z,101756.69
2017-11-09T01:08:07.048Z,101757.16
2017-11-09T01:10:35.440Z,101756.69
2017-11-09T01:13:03.820Z,101750.44
2017-11-09T01:15:32.199Z,101753.48
2017-11-09T01:18:00.595Z,101757.02
2017-11-09T01:20:28.968Z,101748.87
2017-11-09T01:22:57.345Z,101750.55
2017-11-09T01:25:25.718Z,101748.69
2017-11-09T01:27:54.094Z,101752.31
2017-11-09T01:30:22.465Z,101749.22
2017-11-09T01:32:50.840Z,101748.31
2017-11-09T01:35:19.221Z,101746.94
2017-11-09T01:37:47.600Z,101734.87
2017-11-09T01:40:15.977Z,101739.23
2017-11-09T01:42:44.343Z,101741.48
2017-11-09T01:45:12.704Z,101736.17
2017-11-09T01:47:41.842Z,101736.61
2017-11-09T01:50:10.218Z,101738.34
2017-11-09T01:52:38.596Z,101744.58
2017-11-09T01:55:06.974Z,101740.09
2017-11-09T01:57:35.352Z,101740.58
2017-11-09T02:00:03.739Z,101745.54
2017-11-09T02:02:32.115Z,101742.52
2017-11-09T02:05:00.487Z,101742.61
2017-11-09T02:07:28.864Z,101735.48
2017-11-09T02:09:57.228Z,101740.06
2017-11-09T02:12:25.606Z,101741.54
2017-11-09T02:14:54.004Z,101749.75
2017-11-09T02:17:22.387Z,101754.24
2017-11-09T02:19:50.775Z,101752.55
2017-11-09T02:22:19.160Z,101750.33
2017-11-09T02:24:47.532Z,101755.25
2017-11-09T02:27:15.902Z,101753.39
2017-11-09T02:29:44.296Z,101758.32
2017-11-09T02:32:12.670Z,101758.40
2017-11-09T02:34:41.048Z,101758.02
2017-11-09T02:37:09.433Z,101755.30
2017-11-09T02:39:37.808Z,101754.79
2017-11-09T02:42:06.188Z,101752.48
2017-11-09T02:44:34.580Z,101759.12
2017-11-09T02:47:02.951Z,101759.97
2017-11-09T02:49:31.334Z,101762.27
2017-11-09T02:51:59.702Z,101757.42
2017-11-09T02:54:30.790Z,101757.94
2017-11-09T02:56:59.949Z,101752.65
2017-11-09T02:59:28.326Z,101749.91
2017-11-09T03:01:56.709Z,101754.73
2017-11-09T03:04:25.101Z,101747.07
2017-11-09T03:06:53.467Z,101751.45
2017-11-09T03:09:21.840Z,101756.72
2017-11-09T03:11:50.238Z,101752.55
2017-11-09T03:14:18.610Z,101752.53
2017-11-09T03:16:46.981Z,101753.79
2017-11-09T03:19:15.365Z,101753.27
2017-11-09T03:21:43.741Z,101752.39
2017-11-09T03:24:12.137Z,101755.52
2017-11-09T03:26:42.020Z,101751.55
2017-11-09T03:29:10.397Z,101753.79
2017-11-09T03:31:38.780Z,101757.27
2017-11-09T03:34:07.209Z,101756.36
2017-11-09T03:36:35.590Z,101759.62
2017-11-09T03:39:04.728Z,101758.94
2017-11-09T03:41:33.099Z,101762.09
2017-11-09T03:44:01.468Z,101758.55
2017-11-09T03:46:29.843Z,101755.48
2017-11-09T03:48:58.989Z,101756.84
2017-11-09T03:51:27.374Z,101759.50
2017-11-09T03:53:55.756Z,101754.08
2017-11-09T03:56:24.127Z,101748.27
2017-11-09T03:58:52.522Z,101751.50
2017-11-09T04:01:20.896Z,101755.04
2017-11-09T04:03:49.272Z,101754.14
2017-11-09T04:06:17.648Z,101754.08
2017-11-09T04:08:46.024Z,101750.09
2017-11-09T04:11:14.400Z,101747.81
2017-11-09T04:13:42.780Z,101753.59
2017-11-09T04:16:11.154Z,101755.37
2017-11-09T04:18:39.536Z,101750.44
2017-11-09T04:21:07.911Z,101745.08
2017-11-09T04:23:36.279Z,101749.02
2017-11-09T04:26:04.656Z,101752.12
2017-11-09T04:28:33.033Z,101754.36
2017-11-09T04:31:01.413Z,101752.53
2017-11-09T04:33:29.783Z,101753.81
2017-11-09T04:35:58.156Z,101752.50
2017-11-09T04:38:26.530Z,101755.19
2017-11-09T04:40:54.919Z,101759.18
2017-11-09T04:43:23.288Z,101766.34
2017-11-09T04:45:51.668Z,101760.50
2017-11-09T04:48:20.044Z,101764.55
2017-11-09T04:50:48.416Z,101772.61
2017-11-09T04:53:17.559Z,101770.77
2017-11-09T04:55:45.941Z,101776.50
2017-11-09T04:58:14.325Z,101777.35
2017-11-09T05:00:42.707Z,101778.28
2017-11-09T05:03:11.084Z,101782.30
2017-11-09T05:05:39.483Z,101777.84
2017-11-09T05:08:07.855Z,101781.79
2017-11-09T05:10:36.223Z,101787.57
2017-11-09T05:13:04.587Z,101787.59
2017-11-09T05:15:32.959Z,101786.25
2017-11-09T05:18:01.323Z,101794.70
2017-11-09T05:20:29.700Z,101797.30
2017-11-09T05:22:58.081Z,101792.38
2017-11-09T05:25:26.476Z,101790.09
2017-11-09T05:27:54.866Z,101789.16
2017-11-09T05:30:23.255Z,101791.41
2017-11-09T05:32:51.637Z,101790.56
2017-11-09T05:35:20.018Z,101796.42
2017-11-09T05:37:48.426Z,101791.91
2017-11-09T05:40:17.575Z,101793.19
2017-11-09T05:42:45.951Z,101790.97
2017-11-09T05:45:14.315Z,101788.81
2017-11-09T05:47:42.683Z,101795.95
2017-11-09T05:50:11.056Z,101785.22
2017-11-09T05:52:40.344Z,101793.73
2017-11-09T05:55:09.487Z,101782.97
2017-11-09T05:57:37.869Z,101783.33
2017-11-09T06:00:06.239Z,101785.98
2017-11-09T06:02:34.618Z,101791.33
2017-11-09T06:05:03.003Z,101785.52
2017-11-09T06:07:31.384Z,101792.23
2017-11-09T06:09:59.764Z,101794.52
2017-11-09T06:12:28.145Z,101796.75
2017-11-09T06:14:56.519Z,101792.73
2017-11-09T06:17:24.897Z,101794.86
2017-11-09T06:19:53.276Z,101794.02
2017-11-09T06:22:21.658Z,101797.17
2017-11-09T06:24:50.038Z,101795.36
2017-11-09T06:27:19.229Z,101805.17
2017-11-09T06:29:47.608Z,101797.20
2017-11-09T06:32:15.979Z,101798.52
2017-11-09T06:34:44.350Z,101803.91
2017-11-09T06:37:12.732Z,101800.76
2017-11-09T06:39:41.125Z,101800.30
2017-11-09T06:42:09.496Z,101800.70
2017-11-09T06:44:37.863Z,101807.88
2017-11-09T06:47:06.271Z,101806.48
2017-11-09T06:49:34.676Z,101815.39
2017-11-09T06:52:03.098Z,101818.49
2017-11-09T06:54:32.254Z,101820.30
2017-11-09T06:57:00.629Z,101823.02
2017-11-09T06:59:29.005Z,101819.42
2017-11-09T07:01:57.379Z,101825.33
2017-11-09T07:04:25.757Z,101825.73
2017-11-09T07:06:54.134Z,101824.77
2017-11-09T07:09:22.519Z,101826.55
2017-11-09T07:11:50.896Z,101826.58
2017-11-09T07:14:19.280Z,101823.45
2017-11-09T07:16:47.655Z,101825.61
2017-11-09T07:19:16.035Z,101817.97
2017-11-09T07:21:44.411Z,101823.31
2017-11-09T07:24:12.804Z,101827.27
2017-11-09T07:26:41.177Z,101829.98
2017-11-09T07:29:09.557Z,101831.43
2017-11-09T07:31:37.933Z,101824.27
2017-11-09T07:34:06.319Z,101824.33
2017-11-09T07:36:34.691Z,101816.66
2017-11-09T07:39:03.067Z,101810.79
2017-11-09T07:41:31.443Z,101808.02
2017-11-09T07:43:59.820Z,101811.12
2017-11-09T07:46:28.199Z,101814.22
2017-11-09T07:48:56.573Z,101816.46
2017-11-09T07:51:24.947Z,101810.63
2017-11-09T07:53:53.315Z,101812.81
2017-11-09T07:56:21.687Z,101809.70
2017-11-09T07:58:50.052Z,101808.33
2017-11-09T08:01:19.191Z,101808.33
2017-11-09T08:03:47.568Z,101816.38
2017-11-09T08:06:15.943Z,101810.48
2017-11-09T08:08:44.327Z,101808.62
2017-11-09T08:11:12.703Z,101815.75
2017-11-09T08:13:41.079Z,101817.09
2017-11-09T08:16:09.459Z,101824.62
2017-11-09T08:18:37.832Z,101824.14
2017-11-09T08:21:06.215Z,101825.92
2017-11-09T08:23:34.612Z,101824.58
2017-11-09T08:26:04.436Z,101816.95
2017-11-09T08:28:39.659Z,101818.74
2017-11-09T08:31:12.909Z,101813.45
2017-11-09T08:33:43.385Z,101814.73
2017-11-09T08:36:11.769Z,101812.49
2017-11-09T08:38:40.147Z,101804.67
2017-11-09T08:41:08.517Z,101797.42
2017-11-09T08:43:36.903Z,101792.02
2017-11-09T08:46:05.275Z,101796.03
2017-11-09T08:48:33.676Z,101793.28
2017-11-09T08:51:02.053Z,101799.83
2017-11-09T08:53:30.423Z,101792.11
2017-11-09T08:55:58.802Z,101786.27
2017-11-09T08:58:27.237Z,101790.74
2017-11-09T09:00:55.606Z,101785.89
2017-11-09T09:03:24.757Z,101788.23
2017-11-09T09:05:53.137Z,101789.98
2017-11-09T09:08:21.550Z,101786.73
2017-11-09T09:10:50.700Z,101788.94
2017-11-09T09:13:19.081Z,101793.75
2017-11-09T09:15:47.461Z,101793.20
2017-11-09T09:18:15.835Z,101796.37
2017-11-09T09:20:45.514Z,101789.69
2017-11-09T09:23:14.656Z,101789.31
2017-11-09T09:25:43.410Z,101792.34
2017-11-09T09:28:12.686Z,101799.33
2017-11-09T09:30:42.520Z,101797.45
2017-11-09T09:33:13.278Z,101794.65
2017-11-09T09:35:47.673Z,101791.28
2017-11-09T09:38:22.438Z,101796.07
2017-11-09T09:40:50.840Z,101785.66
2017-11-09T09:43:19.216Z,101782.09
2017-11-09T09:45:47.592Z,101790.31
2017-11-09T09:48:15.972Z,101789.94
2017-11-09T09:50:44.360Z,101779.68
2017-11-09T09:53:12.744Z,101770.20
2017-11-09T09:55:41.130Z,101787.62
2017-11-09T09:58:10.275Z,101783.97
2017-11-09T10:00:38.648Z,101784.84
2017-11-09T10:03:07.020Z,101771.84
2017-11-09T10:05:35.396Z,101773.21
2017-11-09T10:08:03.782Z,101775.31
2017-11-09T10:10:32.172Z,101772.55
2017-11-09T10:13:00.569Z,101775.59
2017-11-09T10:15:28.958Z,101771.94
2017-11-09T10:17:57.324Z,101777.69
2017-11-09T10:20:25.709Z,101774.56
2017-11-09T10:22:54.089Z,101776.37
2017-11-09T10:25:22.472Z,101766.96
2017-11-09T10:27:50.856Z,101776.75
2017-11-09T10:30:19.226Z,101765.59
2017-11-09T10:32:47.599Z,101766.02
2017-11-09T10:35:15.971Z,101767.77
2017-11-09T10:37:44.342Z,101772.69
2017-11-09T10:40:12.727Z,101771.38
2017-11-09T10:42:41.106Z,101766.36
2017-11-09T10:45:09.486Z,101762.77
2017-11-09T10:47:37.865Z,101759.17
2017-11-09T10:50:06.251Z,101760.05
2017-11-09T10:52:34.680Z,101755.52
2017-11-09T10:55:03.863Z,101748.25
2017-11-09T10:57:32.244Z,101747.72
2017-11-09T11:00:00.619Z,101759.80
2017-11-09T11:02:28.995Z,101764.33
2017-11-09T11:04:57.367Z,101759.48
2017-11-09T11:07:25.744Z,101755.95
2017-11-09T11:09:54.119Z,101753.29
2017-11-09T11:12:22.502Z,101748.87
2017-11-09T11:14:50.873Z,101747.50
2017-11-09T11:17:19.249Z,101751.98
2017-11-09T11:19:47.634Z,101747.44
2017-11-09T11:22:16.008Z,101750.53
2017-11-09T11:24:44.383Z,101756.83
2017-11-09T11:27:12.779Z,101750.56
2017-11-09T11:29:41.152Z,101751.91
2017-11-09T11:32:09.516Z,101755.45
2017-11-09T11:34:37.883Z,101755.48
2017-11-09T11:37:06.263Z,101748.31
2017-11-09T11:39:34.679Z,101752.35
2017-11-09T11:42:03.064Z,101764.05
2017-11-09T11:44:31.448Z,101768.62
2017-11-09T11:46:59.821Z,101762.89
2017-11-09T11:49:28.195Z,101759.77
2017-11-09T11:51:56.581Z,101753.17
2017-11-09T11:54:24.961Z,101742.47
2017-11-09T11:56:53.354Z,101745.53
2017-11-09T11:59:22.511Z,101748.53
2017-11-09T12:01:50.892Z,101752.55
2017-11-09T12:04:25.747Z,101756.61
2017-11-09T12:06:54.124Z,101750.79
2017-11-09T12:09:22.505Z,101749.98
2017-11-09T12:11:53.717Z,101744.97
2017-11-09T12:14:22.111Z,101748.10
2017-11-09T12:16:50.488Z,101744.50
2017-11-09T12:19:18.881Z,101746.76
2017-11-09T12:21:47.256Z,101749.88
2017-11-09T12:24:15.655Z,101743.53
2017-11-09T12:26:44.024Z,101739.81
2017-11-09T12:29:14.248Z,101744.19
2017-11-09T12:31:42.618Z,101742.34
2017-11-09T12:34:10.982Z,101745.09
2017-11-09T12:36:39.369Z,101741.13
2017-11-09T12:39:07.740Z,101747.91
2017-11-09T12:41:36.112Z,101750.63
2017-11-09T12:44:04.508Z,101748.91
2017-11-09T12:46:32.892Z,101742.59
2017-11-09T12:49:01.268Z,101740.34
2017-11-09T12:51:29.711Z,101742.22
2017-11-09T12:53:58.090Z,101734.09
2017-11-09T12:56:26.476Z,101735.40
2017-11-09T12:58:54.847Z,101728.64
2017-11-09T13:01:23.224Z,101723.66
2017-11-09T13:03:51.590Z,101728.08
2017-11-09T13:06:20.739Z,101725.66
2017-11-09T13:08:49.115Z,101721.49
2017-11-09T13:11:17.496Z,101724.19
2017-11-09T13:13:45.876Z,101727.81
2017-11-09T13:16:14.255Z,101724.69
2017-11-09T13:18:42.635Z,101725.06
2017-11-09T13:21:11.017Z,101718.20
2017-11-09T13:23:39.395Z,101720.39
2017-11-09T13:26:07.771Z,101718.23
2017-11-09T13:28:36.156Z,101715.98
2017-11-09T13:31:04.532Z,101717.77
2017-11-09T13:33:32.922Z,101722.67
2017-11-09T13:36:01.315Z,101719.58
2017-11-09T13:38:29.683Z,101722.74
2017-11-09T13:40:58.069Z,101725.13
2017-11-09T13:43:26.461Z,101718.97
2017-11-09T13:45:55.623Z,101725.22
2017-11-09T13:48:24.022Z,101730.67
2017-11-09T13:50:52.399Z,101730.80
2017-11-09T13:53:20.776Z,101721.92
2017-11-09T13:55:49.166Z,101721.52
2017-11-09T13:58:17.543Z,101717.00
2017-11-09T14:00:45.907Z,101722.98
2017-11-09T14:03:14.289Z,101719.86
2017-11-09T14:05:42.669Z,101718.05
2017-11-09T14:08:11.050Z,101708.59
2017-11-09T14:10:39.442Z,101715.70
2017-11-09T14:13:07.815Z,101716.20
2017-11-09T14:15:36.196Z,101714.85
2017-11-09T14:18:04.569Z,101711.79
2017-11-09T14:20:32.945Z,101712.80
2017-11-09T14:23:01.330Z,101711.11
2017-11-09T14:25:30.471Z,101713.48
2017-11-09T14:27:58.851Z,101708.14
2017-11-09T14:30:27.233Z,101702.45
2017-11-09T14:32:55.607Z,101702.45
2017-11-09T14:35:24.757Z,101703.83
2017-11-09T14:37:53.132Z,101705.67
2017-11-09T14:40:23.301Z,101697.61
2017-11-09T14:42:52.453Z,101689.57
2017-11-09T14:45:20.856Z,101703.02
2017-11-09T14:47:50.021Z,101698.58
2017-11-09T14:50:18.408Z,101695.05
2017-11-09T14:52:46.783Z,101700.48
2017-11-09T14:55:15.169Z,101702.33
2017-11-09T14:57:43.554Z,101709.48
2017-11-09T15:00:11.990Z,101711.73
2017-11-09T15:02:40.368Z,101704.11
2017-11-09T15:05:08.734Z,101699.61
2017-11-09T15:07:37.226Z,101699.14
2017-11-09T15:10:05.604Z,101707.23
2017-11-09T15:12:34.091Z,101705.95
2017-11-09T15:15:02.479Z,101713.14
2017-11-09T15:17:30.861Z,101705.98
2017-11-09T15:19:59.246Z,101706.83
2017-11-09T15:22:27.629Z,101712.67
2017-11-09T15:24:56.008Z,101714.95
2017-11-09T15:27:24.376Z,101714.52
2017-11-09T15:29:52.762Z,101715.39
2017-11-09T15:32:21.143Z,101714.95
2017-11-09T15:34:50.468Z,101718.55
2017-11-09T15:37:18.864Z,101713.20
2017-11-09T15:39:47.252Z,101715.02
2017-11-09T15:42:16.406Z,101714.11
2017-11-09T15:44:44.796Z,101702.92
2017-11-09T15:47:13.175Z,101704.20
2017-11-09T15:49:41.558Z,101712.23
2017-11-09T15:52:09.937Z,101712.70
2017-11-09T15:54:38.342Z,101703.30
2017-11-09T15:57:07.494Z,101706.39
2017-11-09T15:59:35.902Z,101703.30
2017-11-09T16:02:04.298Z,101701.95
2017-11-09T16:04:33.459Z,101702.89
2017-11-09T16:07:01.831Z,101708.70
2017-11-09T16:09:30.212Z,101708.73
2017-11-09T16:11:58.600Z,101707.33
2017-11-09T16:14:26.980Z,101708.23
2017-11-09T16:16:55.369Z,101703.30
2017-11-09T16:19:23.751Z,101698.83
2017-11-09T16:21:52.131Z,101700.67
2017-11-09T16:24:20.521Z,101702.05
2017-11-09T16:26:48.907Z,101692.61
2017-11-09T16:29:17.320Z,101688.61
2017-11-09T16:31:45.704Z,101686.36
2017-11-09T16:34:14.106Z,101687.23
2017-11-09T16:36:42.490Z,101685.48
2017-11-09T16:39:10.876Z,101691.77
2017-11-09T16:41:39.260Z,101681.85
2017-11-09T16:44:07.634Z,101677.45
2017-11-09T16:46:36.020Z,101669.84
2017-11-09T16:49:04.389Z,101665.31
2017-11-09T16:51:32.780Z,101659.50
2017-11-09T16:54:01.191Z,101651.47
2017-11-09T16:56:30.337Z,101644.28
2017-11-09T16:58:58.722Z,101645.66
2017-11-09T17:01:27.096Z,101646.09
2017-11-09T17:03:55.479Z,101639.74
2017-11-09T17:06:23.860Z,101634.37
2017-11-09T17:08:52.233Z,101644.62
2017-11-09T17:11:27.006Z,101645.49
2017-11-09T17:13:56.545Z,101637.05
2017-11-09T17:16:24.920Z,101627.14
2017-11-09T17:18:53.301Z,101624.86
2017-11-09T17:21:21.681Z,101624.80
2017-11-09T17:23:50.051Z,101629.70
2017-11-09T17:26:19.191Z,101627.02
2017-11-09T17:28:47.642Z,101630.58
2017-11-09T17:31:16.018Z,101634.52
2017-11-09T17:33:44.400Z,101620.59
2017-11-09T17:36:12.781Z,101617.91
2017-11-09T17:38:41.153Z,101618.78
2017-11-09T17:41:09.527Z,101612.91
2017-11-09T17:43:38.673Z,101608.44
2017-11-09T17:46:07.052Z,101612.84
2017-11-09T17:48:35.443Z,101608.27
2017-11-09T17:51:03.828Z,101613.58
2017-11-09T17:53:32.196Z,101610.35
2017-11-09T17:56:08.042Z,101606.72
2017-11-09T17:58:38.250Z,101614.42
2017-11-09T18:01:06.633Z,101609.98
2017-11-09T18:03:35.015Z,101609.84
2017-11-09T18:06:03.392Z,101614.32
2017-11-09T18:08:31.772Z,101632.17
2017-11-09T18:11:00.152Z,101621.91
2017-11-09T18:13:28.538Z,101629.05
2017-11-09T18:15:56.923Z,101622.25
2017-11-09T18:18:25.300Z,101622.25
2017-11-09T18:20:53.685Z,101629.95
2017-11-09T18:23:22.072Z,101630.80
2017-11-09T18:25:50.456Z,101628.07
2017-11-09T18:28:19.707Z,101622.66
2017-11-09T18:30:48.084Z,101616.34
2017-11-09T18:33:16.471Z,101622.63
2017-11-09T18:35:44.847Z,101616.41
2017-11-09T18:38:13.220Z,101614.99
2017-11-09T18:40:41.589Z,101615.39
2017-11-09T18:43:10.737Z,101628.81
2017-11-09T18:45:39.116Z,101634.22
2017-11-09T18:48:07.492Z,101623.87
2017-11-09T18:50:35.867Z,101629.62
2017-11-09T18:53:04.249Z,101625.55
2017-11-09T18:55:32.624Z,101616.13
2017-11-09T18:58:01.013Z,101617.88
2017-11-09T19:00:29.388Z,101610.69
2017-11-09T19:02:57.774Z,101615.56
2017-11-09T19:05:26.177Z,101615.53
2017-11-09T19:07:55.331Z,101614.66
2017-11-09T19:10:23.710Z,101618.66
2017-11-09T19:12:52.087Z,101616.40
2017-11-09T19:15:20.462Z,101617.67
2017-11-09T19:17:48.838Z,101610.92
2017-11-09T19:20:17.221Z,101608.70
2017-11-09T19:22:45.607Z,101609.14
2017-11-09T19:25:14.958Z,101612.73
2017-11-09T19:27:44.105Z,101614.08
2017-11-09T19:30:12.483Z,101619.86
2017-11-09T19:32:40.865Z,101616.23
2017-11-09T19:35:09.244Z,101621.14
2017-11-09T19:37:37.619Z,101619.77
2017-11-09T19:40:06.004Z,101625.58
2017-11-09T19:42:34.756Z,101634.09
2017-11-09T19:45:03.191Z,101630.02
2017-11-09T19:47:31.587Z,101635.36
2017-11-09T19:49:59.981Z,101631.33
2017-11-09T19:52:29.138Z,101633.14
2017-11-09T19:54:57.537Z,101638.42
2017-11-09T19:57:25.916Z,101641.48
2017-11-09T19:59:55.060Z,101639.20
2017-11-09T20:02:23.453Z,101633.37
2017-11-09T20:04:51.842Z,101622.61
2017-11-09T20:07:20.380Z,101621.27
2017-11-09T20:09:48.779Z,101622.61
2017-11-09T20:12:17.163Z,101619.92
2017-11-09T20:14:45.535Z,101620.33
2017-11-09T20:17:13.919Z,101618.47
2017-11-09T20:19:42.295Z,101610.77
2017-11-09T20:22:10.681Z,101602.66
2017-11-09T20:24:39.064Z,101604.84
2017-11-09T20:27:07.437Z,101602.12
2017-11-09T20:29:35.816Z,101597.20
2017-11-09T20:32:04.318Z,101590.45
2017-11-09T20:34:32.703Z,101581.46
2017-11-09T20:37:01.130Z,101579.64
2017-11-09T20:39:30.281Z,101572.05
2017-11-09T20:41:58.653Z,101563.50
2017-11-09T20:44:27.597Z,101567.03
2017-11-09T20:46:56.783Z,101562.55
2017-11-09T20:49:25.278Z,101557.10
2017-11-09T20:51:55.299Z,101549.02
2017-11-09T20:54:24.441Z,101547.79
2017-11-09T20:56:52.820Z,101535.20
2017-11-09T20:59:21.192Z,101532.98
2017-11-09T21:01:50.420Z,101532.11
2017-11-09T21:04:18.797Z,101526.30
2017-11-09T21:06:47.239Z,101530.77
2017-11-09T21:09:15.619Z,101531.64
2017-11-09T21:11:44.009Z,101530.33
2017-11-09T21:14:12.497Z,101525.45
2017-11-09T21:16:40.884Z,101517.89
2017-11-09T21:19:09.308Z,101519.60
2017-11-09T21:21:38.484Z,101522.26
2017-11-09T21:24:06.943Z,101516.44
2017-11-09T21:26:35.392Z,101524.11
2017-11-09T21:29:03.774Z,101527.31
2017-11-09T21:31:32.167Z,101521.86
2017-11-09T21:34:00.548Z,101524.11
2017-11-09T21:36:28.923Z,101524.55
2017-11-09T21:38:57.346Z,101515.61
2017-11-09T21:41:25.781Z,101519.31
2017-11-09T21:43:54.169Z,101510.04
2017-11-09T21:46:22.640Z,101512.88
2017-11-09T21:48:51.052Z,101505.93
2017-11-09T21:51:19.431Z,101506.55
2017-11-09T21:53:47.814Z,101505.41
2017-11-09T21:56:16.320Z,101505.08
2017-11-09T21:58:44.700Z,101508.78
2017-11-09T22:01:13.874Z,101508.05
2017-11-09T22:03:42.256Z,101505.03
2017-11-09T22:06:10.637Z,101498.02
2017-11-09T22:08:39.013Z,101492.84
2017-11-09T22:11:07.395Z,101496.55
2017-11-09T22:13:35.776Z,101489.53
2017-11-09T22:16:04.215Z,101489.62
2017-11-09T22:18:32.638Z,101489.30
2017-11-09T22:21:01.035Z,101489.88
2017-11-09T22:23:29.416Z,101484.97
2017-11-09T22:25:58.617Z,101486.34
2017-11-09T22:28:27.000Z,101483.29
2017-11-09T22:30:56.147Z,101492.73
2017-11-09T22:33:24.527Z,101488.77
2017-11-09T22:35:52.916Z,101489.20
2017-11-09T22:38:21.307Z,101491.48
2017-11-09T22:40:49.675Z,101477.61
2017-11-09T22:43:18.075Z,101474.39
2017-11-09T22:45:46.457Z,101477.55
2017-11-09T22:48:14.830Z,101470.83
2017-11-09T22:50:43.205Z,101469.52
2017-11-09T22:53:11.586Z,101464.61
2017-11-09T22:55:39.960Z,101469.55
2017-11-09T22:58:10.316Z,101463.70
2017-11-09T23:00:39.547Z,101464.17
2017-11-09T23:03:07.938Z,101458.36
2017-11-09T23:05:36.308Z,101463.27
2017-11-09T23:08:04.672Z,101461.05
2017-11-09T23:10:33.833Z,101454.77
2017-11-09T23:13:02.207Z,101453.42
2017-11-09T23:15:30.572Z,101452.95
2017-11-09T23:17:58.939Z,101448.81
2017-11-09T23:20:27.320Z,101444.17
2017-11-09T23:22:55.709Z,101432.81
2017-11-09T23:25:24.092Z,101435.80
2017-11-09T23:27:52.456Z,101424.02
2017-11-09T23:30:20.827Z,101422.97
2017-11-09T23:32:49.190Z,101416.55
2017-11-09T23:35:17.555Z,101418.66
2017-11-09T23:37:46.694Z,101422.61
2017-11-09T23:40:15.068Z,101422.11
2017-11-09T23:42:43.432Z,101413.09
2017-11-09T23:45:11.802Z,101412.55
2017-11-09T23:47:40.166Z,101410.66
2017-11-09T23:50:09.313Z,101401.61
2017-11-09T23:52:37.762Z,101395.72
2017-11-09T23:55:06.139Z,101395.61
2017-11-09T23:57:34.524Z,101388.38
